createdAt,value
2022-12-11T00:00:29.129Z,10.65
2022-12-11T00:03:16.408Z,9.80
2022-12-11T00:06:05.855Z,9.70
2022-12-11T00:08:53.420Z,9.88
2022-12-11T00:11:38.164Z,10.07
2022-12-11T00:14:23.441Z,9.63
2022-12-11T00:17:08.294Z,9.90
2022-12-11T00:19:53.434Z,9.93
2022-12-11T00:22:38.328Z,11.43
2022-12-11T00:25:23.193Z,10.13
2022-12-11T00:28:08.251Z,10.00
2022-12-11T00:30:53.252Z,10.20
2022-12-11T00:33:38.446Z,9.83
2022-12-11T00:36:25.914Z,10.50
2022-12-11T00:39:11.038Z,11.40
2022-12-11T00:41:56.205Z,10.25
2022-12-11T00:44:41.489Z,10.15
2022-12-11T00:47:26.523Z,9.67
2022-12-11T00:50:12.210Z,9.80
2022-12-11T00:52:57.266Z,9.55
2022-12-11T00:55:44.091Z,10.00
2022-12-11T00:58:29.063Z,10.27
2022-12-11T01:01:20.929Z,9.60
2022-12-11T01:04:06.096Z,9.50
2022-12-11T01:06:51.175Z,12.07
2022-12-11T01:09:54.463Z,10.45
2022-12-11T01:12:39.738Z,10.23
2022-12-11T01:15:28.065Z,10.93
2022-12-11T01:18:14.779Z,10.15
2022-12-11T01:20:59.770Z,10.63
2022-12-11T01:23:44.885Z,10.50
2022-12-11T01:26:30.590Z,10.45
2022-12-11T01:29:15.910Z,9.83
2022-12-11T01:32:00.935Z,10.90
2022-12-11T01:34:46.006Z,10.50
2022-12-11T01:37:30.983Z,10.43
2022-12-11T01:40:18.742Z,9.30
2022-12-11T01:43:03.572Z,8.30
2022-12-11T01:45:48.891Z,10.15
2022-12-11T01:48:36.777Z,9.57
2022-12-11T01:51:26.862Z,9.48
2022-12-11T01:54:14.718Z,9.73
2022-12-11T01:57:04.105Z,9.17
2022-12-11T01:59:49.260Z,8.95
2022-12-11T02:02:33.986Z,9.82
2022-12-11T02:05:19.027Z,10.02
2022-12-11T02:08:04.884Z,9.10
2022-12-11T02:11:04.062Z,9.17
2022-12-11T02:14:05.392Z,8.57
2022-12-11T02:17:01.154Z,7.85
2022-12-11T02:20:10.859Z,9.10
2022-12-11T02:23:22.981Z,9.32
2022-12-11T02:26:18.665Z,8.07
2022-12-11T02:29:12.250Z,7.35
2022-12-11T02:32:03.263Z,8.27
2022-12-11T02:35:20.799Z,8.73
2022-12-11T02:38:10.639Z,10.50
2022-12-11T02:40:58.325Z,9.77
2022-12-11T02:43:44.411Z,8.40
2022-12-11T02:46:31.187Z,9.13
2022-12-11T02:49:16.747Z,9.68
2022-12-11T02:52:05.064Z,8.55
2022-12-11T02:54:53.825Z,9.13
2022-12-11T02:57:59.864Z,8.35
2022-12-11T03:00:46.092Z,7.15
2022-12-11T03:03:31.117Z,8.88
2022-12-11T03:06:21.602Z,6.57
2022-12-11T03:09:07.325Z,7.57
2022-12-11T03:11:52.444Z,9.20
2022-12-11T03:14:40.326Z,7.93
2022-12-11T03:17:33.947Z,8.90
2022-12-11T03:20:40.513Z,7.80
2022-12-11T03:23:35.740Z,6.63
2022-12-11T03:26:22.720Z,8.02
2022-12-11T03:29:20.515Z,8.55
2022-12-11T03:32:11.071Z,8.00
2022-12-11T03:35:03.865Z,8.73
2022-12-11T03:37:52.141Z,7.23
2022-12-11T03:40:40.126Z,6.95
2022-12-11T03:43:28.480Z,8.05
2022-12-11T03:46:15.244Z,9.27
2022-12-11T03:49:05.695Z,7.95
2022-12-11T03:51:53.577Z,8.80
2022-12-11T03:54:41.163Z,8.30
2022-12-11T03:57:31.132Z,8.27
2022-12-11T04:00:18.546Z,7.95
2022-12-11T04:03:13.854Z,8.52
2022-12-11T04:05:59.350Z,8.00
2022-12-11T04:08:44.610Z,9.25
2022-12-11T04:11:35.048Z,8.02
2022-12-11T04:14:39.055Z,7.28
2022-12-11T04:17:42.731Z,7.55
2022-12-11T04:20:46.924Z,9.53
2022-12-11T04:23:50.487Z,8.75
2022-12-11T04:26:35.493Z,8.65
2022-12-11T04:29:20.513Z,8.10
2022-12-11T04:32:05.788Z,9.35
2022-12-11T04:34:50.626Z,8.17
2022-12-11T04:37:36.035Z,6.85
2022-12-11T04:40:21.883Z,8.77
2022-12-11T04:43:06.666Z,9.30
2022-12-11T04:46:01.024Z,10.70
2022-12-11T04:48:48.445Z,9.47
2022-12-11T04:51:35.111Z,10.02
2022-12-11T04:54:20.225Z,8.02
2022-12-11T04:57:05.375Z,9.82
2022-12-11T04:59:50.482Z,7.90
2022-12-11T05:02:36.940Z,7.93
2022-12-11T05:05:22.021Z,8.52
2022-12-11T05:08:08.066Z,8.55
2022-12-11T05:10:57.315Z,8.10
2022-12-11T05:13:42.928Z,9.63
2022-12-11T05:16:28.189Z,8.93
2022-12-11T05:19:13.404Z,9.88
2022-12-11T05:21:58.544Z,9.18
2022-12-11T05:24:44.104Z,9.57
2022-12-11T05:27:28.885Z,10.05
2022-12-11T05:30:13.914Z,9.00
2022-12-11T05:32:58.924Z,8.20
2022-12-11T05:35:48.366Z,9.35
2022-12-11T05:38:33.631Z,8.98
2022-12-11T05:41:21.962Z,10.07
2022-12-11T05:44:07.199Z,8.20
2022-12-11T05:46:52.451Z,9.18
2022-12-11T05:49:37.222Z,9.73
2022-12-11T05:52:22.391Z,8.95
2022-12-11T05:55:09.697Z,7.57
2022-12-11T05:57:54.903Z,7.80
2022-12-11T06:00:43.187Z,9.02
2022-12-11T06:03:28.199Z,9.60
2022-12-11T06:06:13.512Z,7.68
2022-12-11T06:09:00.410Z,7.53
2022-12-11T06:11:45.393Z,10.27
2022-12-11T06:14:30.241Z,7.43
2022-12-11T06:17:15.249Z,8.02
2022-12-11T06:20:00.391Z,7.57
2022-12-11T06:22:45.402Z,7.85
2022-12-11T06:25:30.746Z,7.27
2022-12-11T06:28:17.442Z,7.25
2022-12-11T06:31:02.228Z,7.47
2022-12-11T06:33:47.501Z,8.57
2022-12-11T06:36:32.609Z,7.57
2022-12-11T06:39:17.921Z,8.37
2022-12-11T06:42:02.970Z,8.52
2022-12-11T06:44:48.015Z,8.85
2022-12-11T06:47:33.140Z,8.63
2022-12-11T06:50:17.996Z,8.27
2022-12-11T06:53:03.110Z,8.20
2022-12-11T06:55:48.101Z,7.30
2022-12-11T06:58:34.965Z,7.63
2022-12-11T07:01:23.410Z,7.97
2022-12-11T07:04:09.071Z,7.93
2022-12-11T07:06:53.954Z,7.83
2022-12-11T07:09:40.686Z,8.57
2022-12-11T07:12:25.477Z,7.65
2022-12-11T07:15:11.113Z,7.88
2022-12-11T07:17:56.159Z,7.07
2022-12-11T07:20:41.254Z,7.80
2022-12-11T07:23:28.281Z,7.13
2022-12-11T07:26:15.910Z,7.72
2022-12-11T07:29:01.130Z,8.32
2022-12-11T07:31:46.385Z,7.68
2022-12-11T07:34:31.180Z,7.40
2022-12-11T07:37:16.210Z,7.45
2022-12-11T07:40:01.189Z,9.05
2022-12-11T07:42:46.541Z,7.63
2022-12-11T07:45:31.997Z,7.53
2022-12-11T07:48:16.829Z,7.40
2022-12-11T07:51:28.517Z,7.75
2022-12-11T07:54:16.705Z,7.32
2022-12-11T07:57:01.538Z,7.70
2022-12-11T07:59:46.565Z,9.18
2022-12-11T08:02:37.014Z,7.50
2022-12-11T08:05:22.606Z,8.88
2022-12-11T08:08:07.695Z,8.88
2022-12-11T08:10:53.199Z,8.70
2022-12-11T08:13:37.993Z,8.07
2022-12-11T08:16:23.241Z,9.40
2022-12-11T08:19:08.537Z,8.80
2022-12-11T08:21:53.731Z,8.90
2022-12-11T08:24:38.985Z,9.00
2022-12-11T08:27:23.696Z,7.90
2022-12-11T08:30:09.449Z,7.87
2022-12-11T08:32:54.258Z,9.07
2022-12-11T08:35:39.841Z,8.55
2022-12-11T08:38:25.706Z,8.20
2022-12-11T08:41:13.306Z,9.27
2022-12-11T08:44:00.115Z,7.50
2022-12-11T08:46:45.539Z,7.95
2022-12-11T08:49:34.327Z,9.07
2022-12-11T08:52:19.676Z,7.65
2022-12-11T08:55:05.343Z,7.32
2022-12-11T08:57:50.681Z,8.60
2022-12-11T09:00:36.088Z,9.27
2022-12-11T09:03:21.256Z,8.68
2022-12-11T09:06:08.451Z,7.57
2022-12-11T09:08:55.898Z,10.55
2022-12-11T09:11:40.923Z,9.97
2022-12-11T09:14:25.898Z,9.27
2022-12-11T09:17:11.025Z,8.95
2022-12-11T09:19:56.179Z,10.82
2022-12-11T09:22:42.675Z,9.77
2022-12-11T09:25:27.741Z,10.43
2022-12-11T09:28:12.903Z,10.75
2022-12-11T09:30:58.031Z,11.90
2022-12-11T09:33:43.503Z,7.85
2022-12-11T09:36:29.461Z,10.50
2022-12-11T09:39:16.067Z,8.57
2022-12-11T09:42:36.337Z,9.63
2022-12-11T09:45:21.431Z,9.63
2022-12-11T09:48:08.166Z,10.50
2022-12-11T09:50:54.911Z,9.50
2022-12-11T09:53:39.866Z,11.87
2022-12-11T09:56:33.736Z,11.23
2022-12-11T09:59:41.241Z,11.57
2022-12-11T10:02:47.554Z,11.45
2022-12-11T10:05:49.851Z,10.48
2022-12-11T10:08:44.696Z,9.67
2022-12-11T10:11:50.357Z,11.18
2022-12-11T10:15:11.526Z,10.13
2022-12-11T10:18:04.626Z,9.82
2022-12-11T10:20:52.613Z,11.50
2022-12-11T10:23:50.648Z,12.00
2022-12-11T10:26:39.496Z,12.00
2022-12-11T10:29:24.754Z,11.15
2022-12-11T10:32:21.771Z,10.45
2022-12-11T10:35:07.859Z,10.02
2022-12-11T10:37:57.061Z,9.00
2022-12-11T10:40:46.229Z,11.05
2022-12-11T10:43:37.254Z,10.13
2022-12-11T10:46:25.477Z,7.50
2022-12-11T10:49:29.950Z,10.15
2022-12-11T10:52:24.607Z,9.27
2022-12-11T10:55:27.251Z,10.60
2022-12-11T10:58:19.012Z,10.48
2022-12-11T11:01:10.409Z,10.63
2022-12-11T11:03:58.646Z,11.07
2022-12-11T11:06:43.830Z,10.47
2022-12-11T11:09:35.725Z,11.68
2022-12-11T11:12:26.996Z,12.25
2022-12-11T11:15:13.814Z,11.27
2022-12-11T11:18:11.227Z,8.25
2022-12-11T11:20:56.939Z,10.50
2022-12-11T11:23:46.244Z,9.32
2022-12-11T11:26:56.550Z,10.32
2022-12-11T11:29:39.019Z,9.02
2022-12-11T11:32:30.911Z,10.32
2022-12-11T11:35:20.394Z,11.23
2022-12-11T11:38:18.499Z,10.02
2022-12-11T11:41:16.841Z,9.20
2022-12-11T11:44:07.156Z,10.68
2022-12-11T11:47:24.833Z,10.40
2022-12-11T11:50:18.928Z,9.60
2022-12-11T11:53:11.793Z,10.70
2022-12-11T11:56:23.550Z,9.90
2022-12-11T11:59:23.329Z,11.65
2022-12-11T12:02:16.241Z,11.65
2022-12-11T12:05:03.390Z,11.93
2022-12-11T12:08:14.119Z,10.77
2022-12-11T12:11:08.006Z,10.07
2022-12-11T12:14:43.751Z,9.52
2022-12-11T12:17:55.461Z,8.82
2022-12-11T12:21:00.401Z,8.93
2022-12-11T12:24:05.411Z,9.50
2022-12-11T12:27:43.245Z,9.45
2022-12-11T12:30:22.813Z,10.60
2022-12-11T12:33:52.434Z,9.55
2022-12-11T12:36:51.186Z,10.03
2022-12-11T12:39:44.957Z,8.63
2022-12-11T12:42:37.387Z,10.18
2022-12-11T12:45:31.076Z,9.30
2022-12-11T12:48:16.465Z,8.95
2022-12-11T12:51:03.382Z,9.57
2022-12-11T12:53:57.872Z,6.78
2022-12-11T12:56:44.995Z,8.18
2022-12-11T12:59:29.985Z,7.53
2022-12-11T13:02:17.126Z,7.85
2022-12-11T13:05:15.941Z,10.10
2022-12-11T13:08:04.345Z,9.38
2022-12-11T13:11:01.076Z,8.70
2022-12-11T13:14:00.467Z,9.02
2022-12-11T13:16:47.712Z,8.43
2022-12-11T13:19:40.603Z,7.07
2022-12-11T13:22:27.517Z,6.22
2022-12-11T13:25:26.129Z,7.07
2022-12-11T13:28:40.498Z,5.50
2022-12-11T13:31:32.869Z,5.22
2022-12-11T13:34:22.747Z,6.23
2022-12-11T13:37:24.772Z,5.50
2022-12-11T13:40:25.921Z,5.70
2022-12-11T13:43:24.528Z,5.88
2022-12-11T13:46:12.221Z,3.25
2022-12-11T13:49:03.059Z,5.40
2022-12-11T13:51:54.274Z,6.78
2022-12-11T13:54:50.407Z,5.40
2022-12-11T13:57:45.500Z,7.45
2022-12-11T14:00:32.747Z,7.65
2022-12-11T14:03:18.728Z,5.80
2022-12-11T14:06:04.191Z,7.07
2022-12-11T14:08:51.716Z,7.05
2022-12-11T14:11:42.000Z,5.22
2022-12-11T14:14:43.472Z,7.32
2022-12-11T14:17:32.694Z,5.97
2022-12-11T14:20:21.423Z,7.35
2022-12-11T14:23:07.585Z,6.68
2022-12-11T14:25:54.440Z,6.72
2022-12-11T14:28:42.367Z,6.32
2022-12-11T14:31:30.602Z,6.80
2022-12-11T14:34:29.818Z,7.55
2022-12-11T14:37:17.568Z,7.68
2022-12-11T14:40:10.229Z,7.93
2022-12-11T14:43:00.516Z,7.43
2022-12-11T14:45:49.000Z,6.97
2022-12-11T14:48:44.700Z,6.53
2022-12-11T14:51:35.889Z,6.15
2022-12-11T14:54:40.559Z,6.65
2022-12-11T14:57:30.538Z,6.93
2022-12-11T15:00:26.180Z,6.83
2022-12-11T15:03:17.300Z,7.15
2022-12-11T15:06:20.134Z,6.03
2022-12-11T15:09:36.507Z,6.35
2022-12-11T15:12:21.908Z,6.70
2022-12-11T15:15:14.353Z,6.60
2022-12-11T15:18:03.661Z,7.85
2022-12-11T15:20:58.240Z,6.53
2022-12-11T15:23:52.742Z,6.88
2022-12-11T15:26:44.103Z,4.82
2022-12-11T15:29:37.935Z,7.07
2022-12-11T15:32:24.411Z,4.63
2022-12-11T15:35:24.154Z,6.78
2022-12-11T15:38:27.329Z,6.45
2022-12-11T15:41:17.724Z,7.00
2022-12-11T15:44:04.074Z,8.63
2022-12-11T15:46:49.480Z,8.40
2022-12-11T15:49:34.289Z,7.00
2022-12-11T15:52:19.343Z,7.63
2022-12-11T15:55:04.738Z,8.35
2022-12-11T15:57:55.611Z,7.70
2022-12-11T16:00:40.495Z,7.95
2022-12-11T16:03:25.689Z,7.35
2022-12-11T16:06:13.006Z,8.20
2022-12-11T16:08:57.992Z,8.32
2022-12-11T16:11:43.050Z,8.50
2022-12-11T16:14:27.919Z,7.53
2022-12-11T16:17:15.025Z,7.63
2022-12-11T16:20:00.072Z,8.40
2022-12-11T16:22:45.160Z,7.97
2022-12-11T16:25:29.944Z,6.97
2022-12-11T16:28:17.977Z,7.30
2022-12-11T16:31:03.407Z,8.45
2022-12-11T16:33:48.244Z,8.82
2022-12-11T16:36:33.282Z,7.55
2022-12-11T16:39:18.258Z,7.33
2022-12-11T16:42:04.978Z,8.77
2022-12-11T16:44:50.242Z,8.07
2022-12-11T16:47:35.112Z,9.02
2022-12-11T16:50:20.744Z,7.78
2022-12-11T16:53:05.819Z,8.10
2022-12-11T16:55:51.429Z,7.63
2022-12-11T16:58:36.305Z,9.02
2022-12-11T17:01:21.799Z,7.72
2022-12-11T17:04:06.845Z,8.23
2022-12-11T17:06:51.747Z,7.87
2022-12-11T17:09:36.722Z,6.93
2022-12-11T17:12:27.377Z,7.65
2022-12-11T17:15:12.970Z,7.95
2022-12-11T17:17:58.358Z,9.27
2022-12-11T17:20:44.621Z,7.63
2022-12-11T17:23:29.763Z,8.55
2022-12-11T17:26:15.641Z,8.93
2022-12-11T17:29:00.450Z,8.32
2022-12-11T17:31:45.721Z,8.52
2022-12-11T17:34:36.070Z,7.87
2022-12-11T17:37:22.636Z,8.00
2022-12-11T17:40:08.183Z,8.75
2022-12-11T17:42:53.311Z,8.32
2022-12-11T17:45:56.364Z,7.80
2022-12-11T17:48:41.363Z,8.30
2022-12-11T17:51:26.258Z,8.88
2022-12-11T17:54:11.561Z,8.15
2022-12-11T17:56:56.647Z,9.20
2022-12-11T17:59:41.683Z,8.35
2022-12-11T18:02:26.637Z,9.30
2022-12-11T18:05:12.028Z,8.70
2022-12-11T18:07:58.065Z,8.80
2022-12-11T18:10:45.509Z,8.27
2022-12-11T18:13:30.540Z,8.73
2022-12-11T18:16:19.671Z,9.10
2022-12-11T18:19:06.232Z,8.57
2022-12-11T18:21:50.977Z,8.52
2022-12-11T18:24:36.010Z,8.30
2022-12-11T18:27:21.110Z,7.20
2022-12-11T18:30:06.636Z,8.93
2022-12-11T18:32:52.037Z,9.43
2022-12-11T18:35:36.782Z,9.85
2022-12-11T18:38:22.231Z,11.07
2022-12-11T18:41:09.072Z,11.25
2022-12-11T18:43:54.991Z,11.00
2022-12-11T18:46:40.220Z,11.02
2022-12-11T18:49:25.384Z,10.55
2022-12-11T18:52:10.487Z,10.82
2022-12-11T18:54:55.656Z,10.57
2022-12-11T18:57:40.863Z,12.70
2022-12-11T19:00:25.727Z,11.00
2022-12-11T19:03:11.868Z,11.65
2022-12-11T19:05:56.903Z,11.63
2022-12-11T19:08:42.161Z,11.25
2022-12-11T19:11:29.218Z,10.37
2022-12-11T19:14:14.201Z,11.02
2022-12-11T19:16:59.720Z,11.55
2022-12-11T19:19:46.060Z,11.35
2022-12-11T19:22:31.218Z,10.95
2022-12-11T19:25:16.290Z,11.43
2022-12-11T19:28:01.760Z,12.73
2022-12-11T19:30:48.941Z,14.07
2022-12-11T19:33:33.934Z,13.05
2022-12-11T19:36:22.074Z,14.15
2022-12-11T19:39:12.852Z,10.87
2022-12-11T19:41:58.788Z,11.00
2022-12-11T19:44:43.858Z,11.43
2022-12-11T19:47:28.957Z,12.00
2022-12-11T19:50:13.870Z,11.75
2022-12-11T19:52:58.712Z,11.33
2022-12-11T19:55:50.712Z,12.48
2022-12-11T19:58:36.003Z,12.10
2022-12-11T20:01:25.698Z,10.82
2022-12-11T20:04:13.549Z,10.10
2022-12-11T20:06:58.662Z,10.73
2022-12-11T20:09:43.706Z,11.98
2022-12-11T20:12:29.463Z,11.00
2022-12-11T20:15:16.529Z,11.23
2022-12-11T20:18:01.785Z,11.32
2022-12-11T20:20:46.772Z,10.97
2022-12-11T20:23:33.200Z,10.10
2022-12-11T20:26:24.149Z,9.75
2022-12-11T20:29:09.133Z,10.70
2022-12-11T20:31:54.163Z,10.70
2022-12-11T20:34:39.489Z,11.00
2022-12-11T20:37:25.857Z,10.25
2022-12-11T20:40:11.797Z,11.63
2022-12-11T20:42:57.063Z,11.65
2022-12-11T20:45:47.515Z,11.88
2022-12-11T20:48:32.713Z,11.83
2022-12-11T20:51:25.653Z,10.70
2022-12-11T20:54:11.243Z,11.38
2022-12-11T20:56:56.934Z,10.25
2022-12-11T20:59:43.157Z,11.45
2022-12-11T21:02:30.754Z,9.07
2022-12-11T21:05:16.339Z,11.93
2022-12-11T21:08:01.183Z,11.27
2022-12-11T21:10:46.364Z,11.57
2022-12-11T21:13:31.399Z,11.70
2022-12-11T21:16:16.413Z,11.27
2022-12-11T21:19:02.515Z,11.15
2022-12-11T21:21:47.781Z,10.23
2022-12-11T21:24:32.977Z,11.02
2022-12-11T21:27:18.185Z,10.65
2022-12-11T21:30:05.049Z,8.57
2022-12-11T21:32:49.898Z,9.80
2022-12-11T21:35:35.304Z,9.77
2022-12-11T21:38:20.503Z,9.23
2022-12-11T21:41:17.587Z,10.38
2022-12-11T21:45:25.538Z,10.00
2022-12-11T21:47:07.172Z,9.88
2022-12-11T21:49:52.365Z,10.23
2022-12-11T21:52:38.659Z,10.75
2022-12-11T21:55:23.859Z,10.13
2022-12-11T21:58:09.484Z,9.37
2022-12-11T22:00:54.608Z,7.13
2022-12-11T22:03:39.681Z,9.20
2022-12-11T22:06:24.639Z,9.52
2022-12-11T22:09:12.332Z,8.30
2022-12-11T22:11:58.788Z,6.97
2022-12-11T22:14:44.265Z,7.75
2022-12-11T22:17:29.698Z,7.85
2022-12-11T22:20:14.681Z,7.45
2022-12-11T22:22:59.881Z,8.15
2022-12-11T22:25:45.891Z,7.40
2022-12-11T22:28:31.193Z,7.03
2022-12-11T22:31:20.419Z,6.90
2022-12-11T22:34:05.400Z,6.70
2022-12-11T22:36:51.047Z,7.18
2022-12-11T22:39:36.307Z,6.53
2022-12-11T22:42:21.283Z,7.60
2022-12-11T22:45:07.140Z,7.50
2022-12-11T22:47:52.340Z,6.68
2022-12-11T22:50:39.325Z,6.45
2022-12-11T22:53:24.440Z,7.40
2022-12-11T22:56:12.123Z,7.28
2022-12-11T22:58:57.947Z,7.28
2022-12-11T23:01:42.948Z,7.13
2022-12-11T23:04:27.882Z,7.50
2022-12-11T23:07:12.754Z,6.27
2022-12-11T23:09:58.298Z,6.10
2022-12-11T23:12:43.571Z,7.80
2022-12-11T23:15:28.862Z,5.90
2022-12-11T23:18:13.878Z,6.53
2022-12-11T23:20:59.240Z,6.30
2022-12-11T23:23:44.547Z,7.30
2022-12-11T23:26:30.374Z,6.72
2022-12-11T23:29:15.227Z,7.18
2022-12-11T23:32:00.374Z,6.53
2022-12-11T23:34:45.483Z,6.97
2022-12-11T23:37:30.927Z,6.93
2022-12-11T23:40:16.158Z,6.65
2022-12-11T23:43:01.304Z,7.75
2022-12-11T23:45:46.709Z,7.15
2022-12-11T23:48:31.815Z,7.40
2022-12-11T23:51:18.795Z,7.03
2022-12-11T23:54:04.153Z,6.82
2022-12-11T23:56:49.193Z,6.72
2022-12-11T23:59:34.316Z,7.45
